Terminal Aerodrome Forecast
Issued by NWS

Home | Current Version | Previous Version | Text Only | Print | Product List | Glossary On
Versions: 1 2 3 4 5 6 7 8 9 10 11 12
000
FTAK31 PAJN 261130
TAFAWG
TAF
PAWG 261130Z 2612/2712 VRB03KT P6SM VCSH BKN050 OVC070
     FM262100 29008KT P6SM BKN050
     FM270600 VRB02KT P6SM BKN080
      AMD LTD TO CLD VIS AND WIND 2612/2615=

USA.gov is the U.S. government's official web portal to all federal, state and local government web resources and services.